sensor_id;sensor_type;location;lat;lon;timestamp;P1;durP1;ratioP1;P2;durP2;ratioP2
72109;SDS011;59983;52.010;5.420;2022-10-26T00:00:06;7.60;;;7.10;;
72109;SDS011;59983;52.010;5.420;2022-10-26T00:02:33;9.10;;;8.18;;
72109;SDS011;59983;52.010;5.420;2022-10-26T00:04:59;9.48;;;8.63;;
72109;SDS011;59983;52.010;5.420;2022-10-26T00:07:27;9.50;;;8.50;;
72109;SDS011;59983;52.010;5.420;2022-10-26T00:09:54;9.75;;;8.20;;
72109;SDS011;59983;52.010;5.420;2022-10-26T00:12:21;7.70;;;7.17;;
72109;SDS011;59983;52.010;5.420;2022-10-26T00:14:47;8.18;;;7.55;;
72109;SDS011;59983;52.010;5.420;2022-10-26T00:17:14;8.40;;;7.13;;
72109;SDS011;59983;52.010;5.420;2022-10-26T00:19:40;9.30;;;8.43;;
72109;SDS011;59983;52.010;5.420;2022-10-26T00:22:07;11.02;;;8.18;;
72109;SDS011;59983;52.010;5.420;2022-10-26T00:24:33;10.73;;;7.50;;
72109;SDS011;59983;52.010;5.420;2022-10-26T00:27:00;8.68;;;7.72;;
72109;SDS011;59983;52.010;5.420;2022-10-26T00:29:26;11.73;;;7.93;;
72109;SDS011;59983;52.010;5.420;2022-10-26T00:31:53;8.63;;;7.35;;
72109;SDS011;59983;52.010;5.420;2022-10-26T00:34:19;14.85;;;8.50;;
72109;SDS011;59983;52.010;5.420;2022-10-26T00:36:46;7.87;;;7.07;;
72109;SDS011;59983;52.010;5.420;2022-10-26T00:39:12;8.30;;;7.50;;
72109;SDS011;59983;52.010;5.420;2022-10-26T00:41:39;7.25;;;6.78;;
72109;SDS011;59983;52.010;5.420;2022-10-26T00:47:10;9.27;;;6.65;;
72109;SDS011;59983;52.010;5.420;2022-10-26T00:49:59;7.87;;;7.07;;
72109;SDS011;59983;52.010;5.420;2022-10-26T00:52:31;11.35;;;6.90;;
72109;SDS011;59983;52.010;5.420;2022-10-26T00:54:58;7.43;;;6.70;;
72109;SDS011;59983;52.010;5.420;2022-10-26T00:57:25;6.82;;;6.07;;
72109;SDS011;59983;52.010;5.420;2022-10-26T00:59:52;7.15;;;6.55;;
72109;SDS011;59983;52.010;5.420;2022-10-26T01:02:21;7.57;;;6.83;;
72109;SDS011;59983;52.010;5.420;2022-10-26T01:04:47;7.85;;;7.18;;
72109;SDS011;59983;52.010;5.420;2022-10-26T01:07:15;7.47;;;6.78;;
72109;SDS011;59983;52.010;5.420;2022-10-26T01:09:42;8.73;;;6.65;;
72109;SDS011;59983;52.010;5.420;2022-10-26T01:12:08;7.93;;;7.32;;
72109;SDS011;59983;52.010;5.420;2022-10-26T01:14:35;7.30;;;6.60;;
72109;SDS011;59983;52.010;5.420;2022-10-26T01:22:56;7.43;;;6.50;;
72109;SDS011;59983;52.010;5.420;2022-10-26T01:28:27;6.43;;;5.83;;
72109;SDS011;59983;52.010;5.420;2022-10-26T01:31:03;8.15;;;6.65;;
72109;SDS011;59983;52.010;5.420;2022-10-26T01:33:36;6.82;;;6.13;;
72109;SDS011;59983;52.010;5.420;2022-10-26T01:36:17;8.38;;;5.95;;
72109;SDS011;59983;52.010;5.420;2022-10-26T01:41:34;10.27;;;6.80;;
72109;SDS011;59983;52.010;5.420;2022-10-26T01:44:03;9.85;;;6.35;;
72109;SDS011;59983;52.010;5.420;2022-10-26T01:46:35;8.45;;;6.30;;
72109;SDS011;59983;52.010;5.420;2022-10-26T01:49:06;7.60;;;6.90;;
72109;SDS011;59983;52.010;5.420;2022-10-26T01:51:35;8.02;;;7.32;;
72109;SDS011;59983;52.010;5.420;2022-10-26T01:54:04;9.77;;;5.87;;
72109;SDS011;59983;52.010;5.420;2022-10-26T01:56:33;6.63;;;6.13;;
72109;SDS011;59983;52.010;5.420;2022-10-26T02:16:16;9.18;;;7.15;;
72109;SDS011;59983;52.010;5.420;2022-10-26T02:21:24;7.90;;;6.70;;
72109;SDS011;59983;52.010;5.420;2022-10-26T02:23:55;9.15;;;6.45;;
72109;SDS011;59983;52.010;5.420;2022-10-26T02:26:25;7.75;;;7.05;;
72109;SDS011;59983;52.010;5.420;2022-10-26T02:28:55;7.63;;;6.90;;
72109;SDS011;59983;52.010;5.420;2022-10-26T02:31:27;8.25;;;7.40;;
72109;SDS011;59983;52.010;5.420;2022-10-26T02:33:56;9.13;;;6.40;;
72109;SDS011;59983;52.010;5.420;2022-10-26T02:36:28;10.05;;;6.63;;
72109;SDS011;59983;52.010;5.420;2022-10-26T02:38:58;9.88;;;7.78;;
72109;SDS011;59983;52.010;5.420;2022-10-26T02:41:28;7.70;;;7.10;;
72109;SDS011;59983;52.010;5.420;2022-10-26T02:43:59;8.43;;;7.60;;
72109;SDS011;59983;52.010;5.420;2022-10-26T02:46:48;7.17;;;6.67;;
72109;SDS011;59983;52.010;5.420;2022-10-26T02:49:16;7.93;;;6.95;;
72109;SDS011;59983;52.010;5.420;2022-10-26T02:54:28;8.32;;;7.53;;
72109;SDS011;59983;52.010;5.420;2022-10-26T02:57:14;8.65;;;7.18;;
72109;SDS011;59983;52.010;5.420;2022-10-26T02:59:44;9.07;;;6.50;;
72109;SDS011;59983;52.010;5.420;2022-10-26T03:02:14;8.55;;;6.43;;
72109;SDS011;59983;52.010;5.420;2022-10-26T03:04:42;8.27;;;7.20;;
72109;SDS011;59983;52.010;5.420;2022-10-26T03:07:09;6.55;;;5.95;;
72109;SDS011;59983;52.010;5.420;2022-10-26T03:09:35;8.70;;;6.55;;
72109;SDS011;59983;52.010;5.420;2022-10-26T03:12:02;6.63;;;6.03;;
72109;SDS011;59983;52.010;5.420;2022-10-26T03:14:28;8.52;;;6.63;;
72109;SDS011;59983;52.010;5.420;2022-10-26T03:16:55;7.00;;;6.45;;
72109;SDS011;59983;52.010;5.420;2022-10-26T03:19:21;10.40;;;7.28;;
72109;SDS011;59983;52.010;5.420;2022-10-26T03:21:48;6.82;;;6.22;;
72109;SDS011;59983;52.010;5.420;2022-10-26T03:24:14;7.50;;;6.73;;
72109;SDS011;59983;52.010;5.420;2022-10-26T03:26:41;10.70;;;6.50;;
72109;SDS011;59983;52.010;5.420;2022-10-26T03:29:07;8.02;;;7.35;;
72109;SDS011;59983;52.010;5.420;2022-10-26T03:31:34;7.43;;;6.72;;
72109;SDS011;59983;52.010;5.420;2022-10-26T03:34:00;8.48;;;7.20;;
72109;SDS011;59983;52.010;5.420;2022-10-26T03:36:27;8.37;;;6.33;;
72109;SDS011;59983;52.010;5.420;2022-10-26T03:38:53;7.55;;;6.85;;
72109;SDS011;59983;52.010;5.420;2022-10-26T03:41:20;7.20;;;6.60;;
72109;SDS011;59983;52.010;5.420;2022-10-26T03:43:46;9.93;;;6.63;;
72109;SDS011;59983;52.010;5.420;2022-10-26T03:46:14;10.15;;;7.10;;
72109;SDS011;59983;52.010;5.420;2022-10-26T03:48:40;7.10;;;6.37;;
72109;SDS011;59983;52.010;5.420;2022-10-26T03:51:07;6.47;;;5.97;;
72109;SDS011;59983;52.010;5.420;2022-10-26T03:53:33;8.70;;;7.72;;
72109;SDS011;59983;52.010;5.420;2022-10-26T03:56:00;9.45;;;7.95;;
72109;SDS011;59983;52.010;5.420;2022-10-26T03:58:26;7.63;;;6.93;;
72109;SDS011;59983;52.010;5.420;2022-10-26T04:00:53;10.13;;;7.07;;
72109;SDS011;59983;52.010;5.420;2022-10-26T04:03:19;7.18;;;6.68;;
72109;SDS011;59983;52.010;5.420;2022-10-26T04:05:45;7.35;;;6.60;;
72109;SDS011;59983;52.010;5.420;2022-10-26T04:08:12;8.20;;;7.47;;
72109;SDS011;59983;52.010;5.420;2022-10-26T04:10:39;8.15;;;7.30;;
72109;SDS011;59983;52.010;5.420;2022-10-26T04:13:05;7.93;;;6.97;;
72109;SDS011;59983;52.010;5.420;2022-10-26T04:15:32;7.63;;;6.93;;
72109;SDS011;59983;52.010;5.420;2022-10-26T04:17:59;8.15;;;7.15;;
72109;SDS011;59983;52.010;5.420;2022-10-26T04:20:28;7.93;;;6.53;;
72109;SDS011;59983;52.010;5.420;2022-10-26T04:22:56;7.78;;;7.28;;
72109;SDS011;59983;52.010;5.420;2022-10-26T04:25:23;7.63;;;7.00;;
72109;SDS011;59983;52.010;5.420;2022-10-26T04:27:55;7.85;;;7.15;;
72109;SDS011;59983;52.010;5.420;2022-10-26T04:30:22;8.38;;;7.57;;
72109;SDS011;59983;52.010;5.420;2022-10-26T04:32:49;8.43;;;7.57;;
72109;SDS011;59983;52.010;5.420;2022-10-26T04:35:16;9.13;;;8.15;;
72109;SDS011;59983;52.010;5.420;2022-10-26T04:37:42;8.83;;;7.20;;
72109;SDS011;59983;52.010;5.420;2022-10-26T04:40:09;7.68;;;6.85;;
72109;SDS011;59983;52.010;5.420;2022-10-26T04:42:45;9.48;;;7.43;;
72109;SDS011;59983;52.010;5.420;2022-10-26T04:45:14;7.47;;;6.90;;
72109;SDS011;59983;52.010;5.420;2022-10-26T04:47:41;7.55;;;6.85;;
72109;SDS011;59983;52.010;5.420;2022-10-26T04:50:08;7.70;;;6.73;;
72109;SDS011;59983;52.010;5.420;2022-10-26T04:52:36;7.95;;;6.95;;
72109;SDS011;59983;52.010;5.420;2022-10-26T04:55:03;7.65;;;6.95;;
72109;SDS011;59983;52.010;5.420;2022-10-26T04:57:34;8.18;;;7.53;;
72109;SDS011;59983;52.010;5.420;2022-10-26T05:00:01;7.00;;;6.30;;
72109;SDS011;59983;52.010;5.420;2022-10-26T05:02:29;7.63;;;6.93;;
72109;SDS011;59983;52.010;5.420;2022-10-26T05:04:55;8.63;;;6.55;;
72109;SDS011;59983;52.010;5.420;2022-10-26T05:07:22;7.30;;;6.55;;
72109;SDS011;59983;52.010;5.420;2022-10-26T05:09:49;9.40;;;6.43;;
72109;SDS011;59983;52.010;5.420;2022-10-26T05:12:15;6.88;;;6.38;;
72109;SDS011;59983;52.010;5.420;2022-10-26T05:14:42;8.57;;;6.47;;
72109;SDS011;59983;52.010;5.420;2022-10-26T05:17:08;8.90;;;6.55;;
72109;SDS011;59983;52.010;5.420;2022-10-26T05:19:35;7.80;;;7.07;;
72109;SDS011;59983;52.010;5.420;2022-10-26T05:22:01;11.43;;;6.30;;
72109;SDS011;59983;52.010;5.420;2022-10-26T05:24:28;7.80;;;6.97;;
72109;SDS011;59983;52.010;5.420;2022-10-26T05:26:54;6.67;;;6.07;;
72109;SDS011;59983;52.010;5.420;2022-10-26T05:29:20;9.68;;;5.72;;
72109;SDS011;59983;52.010;5.420;2022-10-26T05:31:47;6.47;;;6.00;;
72109;SDS011;59983;52.010;5.420;2022-10-26T05:34:14;7.05;;;6.45;;
72109;SDS011;59983;52.010;5.420;2022-10-26T05:36:41;6.95;;;6.38;;
72109;SDS011;59983;52.010;5.420;2022-10-26T05:39:08;10.93;;;6.07;;
72109;SDS011;59983;52.010;5.420;2022-10-26T05:41:34;7.15;;;6.10;;
72109;SDS011;59983;52.010;5.420;2022-10-26T05:44:01;7.55;;;6.55;;
72109;SDS011;59983;52.010;5.420;2022-10-26T05:46:27;6.82;;;6.32;;
72109;SDS011;59983;52.010;5.420;2022-10-26T05:48:54;6.20;;;5.60;;
72109;SDS011;59983;52.010;5.420;2022-10-26T05:51:20;8.70;;;6.50;;
72109;SDS011;59983;52.010;5.420;2022-10-26T05:53:49;8.38;;;6.65;;
72109;SDS011;59983;52.010;5.420;2022-10-26T05:56:19;7.20;;;6.10;;
72109;SDS011;59983;52.010;5.420;2022-10-26T05:58:58;6.57;;;6.03;;
72109;SDS011;59983;52.010;5.420;2022-10-26T06:06:55;11.02;;;6.53;;
72109;SDS011;59983;52.010;5.420;2022-10-26T06:09:24;10.68;;;5.95;;
72109;SDS011;59983;52.010;5.420;2022-10-26T06:11:50;10.18;;;6.07;;
72109;SDS011;59983;52.010;5.420;2022-10-26T06:14:17;8.88;;;5.85;;
72109;SDS011;59983;52.010;5.420;2022-10-26T06:28:19;6.90;;;5.75;;
72109;SDS011;59983;52.010;5.420;2022-10-26T06:31:04;7.63;;;6.10;;
72109;SDS011;59983;52.010;5.420;2022-10-26T06:33:31;7.15;;;6.45;;
72109;SDS011;59983;52.010;5.420;2022-10-26T06:38:31;7.88;;;6.78;;
72109;SDS011;59983;52.010;5.420;2022-10-26T06:41:01;7.05;;;6.32;;
72109;SDS011;59983;52.010;5.420;2022-10-26T06:43:29;7.97;;;6.40;;
72109;SDS011;59983;52.010;5.420;2022-10-26T06:46:09;6.63;;;6.03;;
72109;SDS011;59983;52.010;5.420;2022-10-26T06:51:31;6.78;;;6.13;;
72109;SDS011;59983;52.010;5.420;2022-10-26T06:54:10;6.20;;;5.70;;
72109;SDS011;59983;52.010;5.420;2022-10-26T06:56:55;6.50;;;5.90;;
72109;SDS011;59983;52.010;5.420;2022-10-26T06:59:30;7.95;;;5.60;;
72109;SDS011;59983;52.010;5.420;2022-10-26T07:01:57;9.85;;;5.75;;
72109;SDS011;59983;52.010;5.420;2022-10-26T07:04:29;8.57;;;5.55;;
72109;SDS011;59983;52.010;5.420;2022-10-26T07:06:56;9.43;;;5.22;;
72109;SDS011;59983;52.010;5.420;2022-10-26T07:09:22;5.93;;;5.47;;
72109;SDS011;59983;52.010;5.420;2022-10-26T07:11:49;6.00;;;5.53;;
72109;SDS011;59983;52.010;5.420;2022-10-26T07:14:15;6.00;;;5.25;;
72109;SDS011;59983;52.010;5.420;2022-10-26T07:16:42;7.13;;;5.45;;
72109;SDS011;59983;52.010;5.420;2022-10-26T07:19:08;7.65;;;5.57;;
72109;SDS011;59983;52.010;5.420;2022-10-26T07:21:34;6.73;;;5.33;;
72109;SDS011;59983;52.010;5.420;2022-10-26T07:24:01;8.07;;;5.13;;
72109;SDS011;59983;52.010;5.420;2022-10-26T07:26:27;6.80;;;5.03;;
72109;SDS011;59983;52.010;5.420;2022-10-26T07:28:54;6.07;;;5.57;;
72109;SDS011;59983;52.010;5.420;2022-10-26T07:31:20;5.18;;;4.80;;
72109;SDS011;59983;52.010;5.420;2022-10-26T07:33:47;5.30;;;4.80;;
72109;SDS011;59983;52.010;5.420;2022-10-26T07:36:14;7.07;;;5.32;;
72109;SDS011;59983;52.010;5.420;2022-10-26T07:38:41;6.38;;;4.95;;
72109;SDS011;59983;52.010;5.420;2022-10-26T07:41:07;5.25;;;4.80;;
72109;SDS011;59983;52.010;5.420;2022-10-26T07:43:34;6.05;;;5.50;;
72109;SDS011;59983;52.010;5.420;2022-10-26T07:46:00;11.77;;;5.70;;
72109;SDS011;59983;52.010;5.420;2022-10-26T07:48:27;6.63;;;6.03;;
72109;SDS011;59983;52.010;5.420;2022-10-26T07:50:53;6.05;;;5.47;;
72109;SDS011;59983;52.010;5.420;2022-10-26T07:53:20;6.40;;;5.55;;
72109;SDS011;59983;52.010;5.420;2022-10-26T07:55:53;6.40;;;5.90;;
72109;SDS011;59983;52.010;5.420;2022-10-26T07:58:21;6.30;;;5.73;;
72109;SDS011;59983;52.010;5.420;2022-10-26T08:00:51;7.68;;;6.35;;
72109;SDS011;59983;52.010;5.420;2022-10-26T08:03:18;6.25;;;5.68;;
72109;SDS011;59983;52.010;5.420;2022-10-26T08:05:46;8.40;;;5.15;;
72109;SDS011;59983;52.010;5.420;2022-10-26T08:08:16;6.65;;;5.40;;
72109;SDS011;59983;52.010;5.420;2022-10-26T08:10:44;5.73;;;5.23;;
72109;SDS011;59983;52.010;5.420;2022-10-26T08:13:11;7.65;;;6.25;;
72109;SDS011;59983;52.010;5.420;2022-10-26T08:15:38;5.95;;;5.55;;
72109;SDS011;59983;52.010;5.420;2022-10-26T08:18:04;6.65;;;6.05;;
72109;SDS011;59983;52.010;5.420;2022-10-26T08:20:32;6.60;;;6.00;;
72109;SDS011;59983;52.010;5.420;2022-10-26T08:22:58;6.27;;;5.67;;
72109;SDS011;59983;52.010;5.420;2022-10-26T08:25:26;6.60;;;6.03;;
72109;SDS011;59983;52.010;5.420;2022-10-26T08:27:53;6.88;;;6.38;;
72109;SDS011;59983;52.010;5.420;2022-10-26T08:30:19;6.97;;;6.22;;
72109;SDS011;59983;52.010;5.420;2022-10-26T08:32:46;6.75;;;6.15;;
72109;SDS011;59983;52.010;5.420;2022-10-26T08:35:13;9.70;;;5.87;;
72109;SDS011;59983;52.010;5.420;2022-10-26T08:37:40;6.53;;;5.72;;
72109;SDS011;59983;52.010;5.420;2022-10-26T08:40:08;6.07;;;5.53;;
72109;SDS011;59983;52.010;5.420;2022-10-26T08:42:44;7.85;;;5.10;;
72109;SDS011;59983;52.010;5.420;2022-10-26T08:45:28;10.40;;;5.25;;
72109;SDS011;59983;52.010;5.420;2022-10-26T08:48:04;8.83;;;5.97;;
72109;SDS011;59983;52.010;5.420;2022-10-26T08:50:39;6.45;;;5.18;;
72109;SDS011;59983;52.010;5.420;2022-10-26T08:55:51;8.15;;;5.22;;
72109;SDS011;59983;52.010;5.420;2022-10-26T08:58:23;7.55;;;5.57;;
72109;SDS011;59983;52.010;5.420;2022-10-26T09:00:55;6.20;;;4.30;;
72109;SDS011;59983;52.010;5.420;2022-10-26T09:03:21;8.88;;;5.25;;
72109;SDS011;59983;52.010;5.420;2022-10-26T09:16:41;5.07;;;4.00;;
72109;SDS011;59983;52.010;5.420;2022-10-26T09:19:39;4.93;;;4.53;;
72109;SDS011;59983;52.010;5.420;2022-10-26T09:22:23;5.43;;;4.85;;
72109;SDS011;59983;52.010;5.420;2022-10-26T09:24:59;6.05;;;4.10;;
72109;SDS011;59983;52.010;5.420;2022-10-26T09:27:40;7.67;;;4.33;;
72109;SDS011;59983;52.010;5.420;2022-10-26T09:30:15;4.97;;;4.45;;
72109;SDS011;59983;52.010;5.420;2022-10-26T09:32:47;15.05;;;4.47;;
72109;SDS011;59983;52.010;5.420;2022-10-26T09:35:20;8.50;;;4.18;;
72109;SDS011;59983;52.010;5.420;2022-10-26T09:37:50;5.97;;;4.65;;
72109;SDS011;59983;52.010;5.420;2022-10-26T09:40:23;5.70;;;5.07;;
72109;SDS011;59983;52.010;5.420;2022-10-26T09:42:57;6.05;;;4.55;;
72109;SDS011;59983;52.010;5.420;2022-10-26T09:45:44;5.50;;;4.45;;
72109;SDS011;59983;52.010;5.420;2022-10-26T09:48:15;6.15;;;5.13;;
72109;SDS011;59983;52.010;5.420;2022-10-26T09:51:00;7.47;;;4.47;;
72109;SDS011;59983;52.010;5.420;2022-10-26T09:53:30;5.20;;;4.53;;
72109;SDS011;59983;52.010;5.420;2022-10-26T09:56:00;4.45;;;4.05;;
72109;SDS011;59983;52.010;5.420;2022-10-26T09:58:31;7.40;;;4.38;;
72109;SDS011;59983;52.010;5.420;2022-10-26T10:01:02;4.80;;;4.43;;
72109;SDS011;59983;52.010;5.420;2022-10-26T10:03:30;5.00;;;4.05;;
72109;SDS011;59983;52.010;5.420;2022-10-26T10:06:14;8.23;;;3.93;;
72109;SDS011;59983;52.010;5.420;2022-10-26T10:08:42;7.45;;;3.35;;
72109;SDS011;59983;52.010;5.420;2022-10-26T10:11:12;10.05;;;4.00;;
72109;SDS011;59983;52.010;5.420;2022-10-26T10:13:41;4.47;;;4.07;;
72109;SDS011;59983;52.010;5.420;2022-10-26T10:18:38;7.07;;;4.53;;
72109;SDS011;59983;52.010;5.420;2022-10-26T10:21:06;5.47;;;4.15;;
72109;SDS011;59983;52.010;5.420;2022-10-26T10:23:36;5.20;;;4.32;;
72109;SDS011;59983;52.010;5.420;2022-10-26T10:26:12;4.90;;;3.60;;
72109;SDS011;59983;52.010;5.420;2022-10-26T10:28:39;9.27;;;4.78;;
72109;SDS011;59983;52.010;5.420;2022-10-26T10:31:18;5.03;;;4.47;;
72109;SDS011;59983;52.010;5.420;2022-10-26T10:33:46;6.35;;;4.53;;
72109;SDS011;59983;52.010;5.420;2022-10-26T10:36:15;6.28;;;3.85;;
72109;SDS011;59983;52.010;5.420;2022-10-26T10:38:48;11.40;;;4.55;;
72109;SDS011;59983;52.010;5.420;2022-10-26T10:43:53;7.50;;;4.30;;
72109;SDS011;59983;52.010;5.420;2022-10-26T10:46:22;6.47;;;3.63;;
72109;SDS011;59983;52.010;5.420;2022-10-26T10:48:53;4.88;;;4.47;;
72109;SDS011;59983;52.010;5.420;2022-10-26T10:51:27;9.13;;;4.15;;
72109;SDS011;59983;52.010;5.420;2022-10-26T10:54:01;4.45;;;3.78;;
72109;SDS011;59983;52.010;5.420;2022-10-26T11:08:03;3.95;;;3.35;;
72109;SDS011;59983;52.010;5.420;2022-10-26T11:10:38;5.30;;;4.00;;
72109;SDS011;59983;52.010;5.420;2022-10-26T11:13:14;6.00;;;4.20;;
72109;SDS011;59983;52.010;5.420;2022-10-26T11:15:49;6.03;;;5.15;;
72109;SDS011;59983;52.010;5.420;2022-10-26T11:18:32;6.70;;;5.53;;
72109;SDS011;59983;52.010;5.420;2022-10-26T11:21:04;6.32;;;4.90;;
72109;SDS011;59983;52.010;5.420;2022-10-26T11:23:45;6.07;;;3.97;;
72109;SDS011;59983;52.010;5.420;2022-10-26T11:26:26;9.57;;;4.75;;
72109;SDS011;59983;52.010;5.420;2022-10-26T11:29:02;7.63;;;6.10;;
72109;SDS011;59983;52.010;5.420;2022-10-26T11:31:38;5.07;;;4.60;;
72109;SDS011;59983;52.010;5.420;2022-10-26T11:34:36;5.93;;;4.80;;
72109;SDS011;59983;52.010;5.420;2022-10-26T11:37:14;6.80;;;5.30;;
72109;SDS011;59983;52.010;5.420;2022-10-26T11:42:45;6.18;;;4.50;;
72109;SDS011;59983;52.010;5.420;2022-10-26T11:45:21;6.40;;;5.10;;
72109;SDS011;59983;52.010;5.420;2022-10-26T11:47:52;5.25;;;4.57;;
72109;SDS011;59983;52.010;5.420;2022-10-26T11:50:26;5.97;;;5.33;;
72109;SDS011;59983;52.010;5.420;2022-10-26T11:52:59;4.60;;;4.20;;
72109;SDS011;59983;52.010;5.420;2022-10-26T11:55:45;5.60;;;5.30;;
72109;SDS011;59983;52.010;5.420;2022-10-26T11:58:16;6.65;;;5.15;;
72109;SDS011;59983;52.010;5.420;2022-10-26T12:00:48;7.50;;;4.93;;
72109;SDS011;59983;52.010;5.420;2022-10-26T12:03:19;7.00;;;4.50;;
72109;SDS011;59983;52.010;5.420;2022-10-26T12:05:53;6.10;;;5.60;;
72109;SDS011;59983;52.010;5.420;2022-10-26T12:08:23;5.57;;;5.05;;
72109;SDS011;59983;52.010;5.420;2022-10-26T12:11:12;7.30;;;5.20;;
72109;SDS011;59983;52.010;5.420;2022-10-26T12:16:33;6.50;;;4.27;;
72109;SDS011;59983;52.010;5.420;2022-10-26T12:19:19;10.95;;;4.80;;
72109;SDS011;59983;52.010;5.420;2022-10-26T12:21:47;5.85;;;5.13;;
72109;SDS011;59983;52.010;5.420;2022-10-26T12:26:57;6.88;;;3.58;;
72109;SDS011;59983;52.010;5.420;2022-10-26T12:29:26;8.90;;;3.87;;
72109;SDS011;59983;52.010;5.420;2022-10-26T12:32:03;4.75;;;4.10;;
72109;SDS011;59983;52.010;5.420;2022-10-26T12:37:30;4.88;;;3.80;;
72109;SDS011;59983;52.010;5.420;2022-10-26T12:45:39;5.15;;;3.30;;
72109;SDS011;59983;52.010;5.420;2022-10-26T12:48:22;4.53;;;3.85;;
72109;SDS011;59983;52.010;5.420;2022-10-26T12:59:10;8.27;;;3.88;;
72109;SDS011;59983;52.010;5.420;2022-10-26T13:02:10;5.35;;;3.17;;
72109;SDS011;59983;52.010;5.420;2022-10-26T13:07:46;4.28;;;3.63;;
72109;SDS011;59983;52.010;5.420;2022-10-26T13:12:50;3.17;;;2.83;;
72109;SDS011;59983;52.010;5.420;2022-10-26T13:15:23;5.40;;;3.80;;
72109;SDS011;59983;52.010;5.420;2022-10-26T13:18:06;4.93;;;3.60;;
72109;SDS011;59983;52.010;5.420;2022-10-26T13:20:50;6.15;;;4.38;;
72109;SDS011;59983;52.010;5.420;2022-10-26T13:23:31;5.13;;;4.33;;
72109;SDS011;59983;52.010;5.420;2022-10-26T13:26:09;4.10;;;3.60;;
72109;SDS011;59983;52.010;5.420;2022-10-26T13:31:51;5.80;;;4.70;;
72109;SDS011;59983;52.010;5.420;2022-10-26T13:34:18;5.78;;;4.63;;
72109;SDS011;59983;52.010;5.420;2022-10-26T13:37:30;5.30;;;4.80;;
72109;SDS011;59983;52.010;5.420;2022-10-26T13:39:43;6.38;;;4.80;;
72109;SDS011;59983;52.010;5.420;2022-10-26T13:42:14;4.95;;;4.32;;
72109;SDS011;59983;52.010;5.420;2022-10-26T13:44:49;9.48;;;5.30;;
72109;SDS011;59983;52.010;5.420;2022-10-26T13:47:28;7.10;;;5.18;;
72109;SDS011;59983;52.010;5.420;2022-10-26T13:50:04;6.70;;;5.50;;
72109;SDS011;59983;52.010;5.420;2022-10-26T13:52:34;5.85;;;5.35;;
72109;SDS011;59983;52.010;5.420;2022-10-26T13:55:13;7.53;;;5.65;;
72109;SDS011;59983;52.010;5.420;2022-10-26T14:00:30;6.15;;;4.95;;
72109;SDS011;59983;52.010;5.420;2022-10-26T14:02:57;6.13;;;4.77;;
72109;SDS011;59983;52.010;5.420;2022-10-26T14:05:23;5.10;;;4.70;;
72109;SDS011;59983;52.010;5.420;2022-10-26T14:07:54;10.80;;;4.45;;
72109;SDS011;59983;52.010;5.420;2022-10-26T14:12:52;4.75;;;3.78;;
72109;SDS011;59983;52.010;5.420;2022-10-26T14:15:22;7.50;;;4.07;;
72109;SDS011;59983;52.010;5.420;2022-10-26T14:17:52;3.65;;;3.17;;
72109;SDS011;59983;52.010;5.420;2022-10-26T14:20:21;4.53;;;3.58;;
72109;SDS011;59983;52.010;5.420;2022-10-26T14:22:49;4.07;;;3.22;;
72109;SDS011;59983;52.010;5.420;2022-10-26T14:25:18;4.03;;;3.72;;
72109;SDS011;59983;52.010;5.420;2022-10-26T14:28:01;8.37;;;4.13;;
72109;SDS011;59983;52.010;5.420;2022-10-26T14:30:31;5.72;;;2.95;;
72109;SDS011;59983;52.010;5.420;2022-10-26T14:32:58;9.75;;;3.25;;
72109;SDS011;59983;52.010;5.420;2022-10-26T14:35:27;4.20;;;3.00;;
72109;SDS011;59983;52.010;5.420;2022-10-26T14:38:01;6.88;;;2.75;;
72109;SDS011;59983;52.010;5.420;2022-10-26T14:40:32;4.77;;;2.80;;
72109;SDS011;59983;52.010;5.420;2022-10-26T14:43:01;4.25;;;2.97;;
72109;SDS011;59983;52.010;5.420;2022-10-26T14:45:31;8.85;;;3.40;;
72109;SDS011;59983;52.010;5.420;2022-10-26T14:48:22;4.88;;;2.50;;
72109;SDS011;59983;52.010;5.420;2022-10-26T14:50:57;7.93;;;3.28;;
72109;SDS011;59983;52.010;5.420;2022-10-26T14:53:32;3.73;;;2.90;;
72109;SDS011;59983;52.010;5.420;2022-10-26T14:56:02;6.68;;;3.47;;
72109;SDS011;59983;52.010;5.420;2022-10-26T14:58:30;5.80;;;2.90;;
72109;SDS011;59983;52.010;5.420;2022-10-26T15:04:21;2.80;;;2.28;;
72109;SDS011;59983;52.010;5.420;2022-10-26T15:06:51;3.10;;;2.37;;
72109;SDS011;59983;52.010;5.420;2022-10-26T15:09:52;2.92;;;2.60;;
72109;SDS011;59983;52.010;5.420;2022-10-26T15:14:50;7.95;;;2.72;;
72109;SDS011;59983;52.010;5.420;2022-10-26T15:17:21;4.38;;;2.35;;
72109;SDS011;59983;52.010;5.420;2022-10-26T15:19:52;5.60;;;2.57;;
72109;SDS011;59983;52.010;5.420;2022-10-26T15:22:21;2.97;;;2.30;;
72109;SDS011;59983;52.010;5.420;2022-10-26T15:24:56;4.88;;;2.88;;
72109;SDS011;59983;52.010;5.420;2022-10-26T15:27:25;4.10;;;2.45;;
72109;SDS011;59983;52.010;5.420;2022-10-26T15:30:07;3.88;;;2.95;;
72109;SDS011;59983;52.010;5.420;2022-10-26T15:32:37;3.37;;;2.50;;
72109;SDS011;59983;52.010;5.420;2022-10-26T15:37:37;5.32;;;2.70;;
72109;SDS011;59983;52.010;5.420;2022-10-26T15:40:04;2.58;;;2.38;;
72109;SDS011;59983;52.010;5.420;2022-10-26T15:42:32;4.35;;;2.60;;
72109;SDS011;59983;52.010;5.420;2022-10-26T15:45:03;3.03;;;2.60;;
72109;SDS011;59983;52.010;5.420;2022-10-26T15:47:51;5.28;;;2.78;;
72109;SDS011;59983;52.010;5.420;2022-10-26T15:50:20;3.17;;;2.55;;
72109;SDS011;59983;52.010;5.420;2022-10-26T15:52:49;4.05;;;2.95;;
72109;SDS011;59983;52.010;5.420;2022-10-26T15:55:21;3.05;;;2.70;;
72109;SDS011;59983;52.010;5.420;2022-10-26T15:57:49;5.90;;;3.00;;
72109;SDS011;59983;52.010;5.420;2022-10-26T16:00:16;10.18;;;2.83;;
72109;SDS011;59983;52.010;5.420;2022-10-26T16:02:43;7.10;;;2.42;;
72109;SDS011;59983;52.010;5.420;2022-10-26T16:05:11;4.93;;;2.50;;
72109;SDS011;59983;52.010;5.420;2022-10-26T16:07:39;5.03;;;2.78;;
72109;SDS011;59983;52.010;5.420;2022-10-26T16:10:12;5.43;;;2.80;;
72109;SDS011;59983;52.010;5.420;2022-10-26T16:12:42;3.15;;;2.70;;
72109;SDS011;59983;52.010;5.420;2022-10-26T16:15:14;3.40;;;2.92;;
72109;SDS011;59983;52.010;5.420;2022-10-26T16:17:42;5.70;;;2.80;;
72109;SDS011;59983;52.010;5.420;2022-10-26T16:20:11;2.90;;;2.70;;
72109;SDS011;59983;52.010;5.420;2022-10-26T16:22:43;4.30;;;2.53;;
72109;SDS011;59983;52.010;5.420;2022-10-26T16:25:17;5.55;;;3.50;;
72109;SDS011;59983;52.010;5.420;2022-10-26T16:27:45;3.08;;;2.83;;
72109;SDS011;59983;52.010;5.420;2022-10-26T16:30:12;6.25;;;3.08;;
72109;SDS011;59983;52.010;5.420;2022-10-26T16:32:39;3.10;;;2.67;;
72109;SDS011;59983;52.010;5.420;2022-10-26T16:35:06;5.57;;;3.20;;
72109;SDS011;59983;52.010;5.420;2022-10-26T16:37:33;5.80;;;3.13;;
72109;SDS011;59983;52.010;5.420;2022-10-26T16:40:00;6.32;;;2.85;;
72109;SDS011;59983;52.010;5.420;2022-10-26T16:42:26;7.55;;;3.30;;
72109;SDS011;59983;52.010;5.420;2022-10-26T16:44:53;3.03;;;2.80;;
72109;SDS011;59983;52.010;5.420;2022-10-26T16:47:25;3.90;;;3.27;;
72109;SDS011;59983;52.010;5.420;2022-10-26T16:49:52;3.28;;;2.97;;
72109;SDS011;59983;52.010;5.420;2022-10-26T16:52:18;9.77;;;3.70;;
72109;SDS011;59983;52.010;5.420;2022-10-26T16:54:45;8.55;;;4.03;;
72109;SDS011;59983;52.010;5.420;2022-10-26T16:57:11;3.25;;;2.97;;
72109;SDS011;59983;52.010;5.420;2022-10-26T16:59:38;4.60;;;3.17;;
72109;SDS011;59983;52.010;5.420;2022-10-26T17:02:04;6.13;;;3.00;;
72109;SDS011;59983;52.010;5.420;2022-10-26T17:04:31;4.70;;;3.10;;
72109;SDS011;59983;52.010;5.420;2022-10-26T17:06:57;13.15;;;3.17;;
72109;SDS011;59983;52.010;5.420;2022-10-26T17:09:24;4.15;;;3.25;;
72109;SDS011;59983;52.010;5.420;2022-10-26T17:11:50;5.17;;;2.90;;
72109;SDS011;59983;52.010;5.420;2022-10-26T17:14:20;6.38;;;3.38;;
72109;SDS011;59983;52.010;5.420;2022-10-26T17:16:47;4.82;;;3.65;;
72109;SDS011;59983;52.010;5.420;2022-10-26T17:19:13;5.85;;;3.25;;
72109;SDS011;59983;52.010;5.420;2022-10-26T17:21:39;6.28;;;4.10;;
72109;SDS011;59983;52.010;5.420;2022-10-26T17:24:06;4.27;;;3.53;;